Portada
METAR-TAF:

METAR-TAF

Aeroports :

Chester, Connecticut, Estats Units d'Amèrica

latitud: 41-23-02N, longitud: 072-30-21W, altitud: 127 m

Observació

L'informe es va fer fa 21 minuts, a les 08:35 UTC
Vent calma
Temperatura 22°C
Humitat 100%
Pressió 1014 hPa
Visibilitat: 2.4 km
Cel cobert a una alçada de 100 ft
boirina

METAR: KSNC 180835Z AUTO 00000KT 1 1/2SM BR OVC001 22/22 A2993 RMK AO2

Hora: 04:56 (08:56 UTC)


TAF: manca

Observacions i pronòstics meteorològics de més de 4000 aeroports (METAR i TAF).

Les estacions disponibles són els punts grocs i vermells al mapa.

Posi el ratolí al punt desitjat per veure el nom de l'estació.

Feu clic per veure les observacions i els pronòstics meteorològics.

Per canviar el mapa: feu clic els botons verds amb una creu de color negre per apropar; al botó verd amb un guió per allunyar la imatge; o en les fletxes verdes per a mapes adjacents.


METAR-TAF: